sensor_id;sensor_type;location;lat;lon;timestamp;pressure;altitude;pressure_sealevel;temperature;humidity
45888;BME280;31595;51.418;7.572;2023-04-12T00:01:08;99445.16;;;11.38;47.45
45888;BME280;31595;51.418;7.572;2023-04-12T00:03:35;99438.44;;;11.39;47.03
45888;BME280;31595;51.418;7.572;2023-04-12T00:06:04;99431.78;;;11.31;47.47
45888;BME280;31595;51.418;7.572;2023-04-12T00:08:35;99421.84;;;11.43;47.58
45888;BME280;31595;51.418;7.572;2023-04-12T00:11:02;99420.28;;;11.33;47.89
45888;BME280;31595;51.418;7.572;2023-04-12T00:13:32;99406.50;;;11.36;48.09
45888;BME280;31595;51.418;7.572;2023-04-12T00:16:01;99385.91;;;11.29;47.86
45888;BME280;31595;51.418;7.572;2023-04-12T00:18:29;99399.28;;;11.35;48.05
45888;BME280;31595;51.418;7.572;2023-04-12T00:20:59;99400.91;;;11.36;48.12
45888;BME280;31595;51.418;7.572;2023-04-12T00:23:27;99401.38;;;11.38;48.04
45888;BME280;31595;51.418;7.572;2023-04-12T00:25:54;99394.06;;;11.34;48.02
45888;BME280;31595;51.418;7.572;2023-04-12T00:28:22;99395.53;;;11.31;48.41
45888;BME280;31595;51.418;7.572;2023-04-12T00:30:50;99390.69;;;11.41;48.38
45888;BME280;31595;51.418;7.572;2023-04-12T00:33:19;99381.28;;;11.45;48.42
45888;BME280;31595;51.418;7.572;2023-04-12T00:35:46;99374.91;;;11.45;48.56
45888;BME280;31595;51.418;7.572;2023-04-12T00:38:18;99379.78;;;11.48;47.84
45888;BME280;31595;51.418;7.572;2023-04-12T00:40:45;99370.72;;;11.51;48.34
45888;BME280;31595;51.418;7.572;2023-04-12T00:43:13;99368.97;;;11.46;48.98
45888;BME280;31595;51.418;7.572;2023-04-12T00:45:46;99385.34;;;11.35;49.49
45888;BME280;31595;51.418;7.572;2023-04-12T00:48:14;99362.69;;;11.37;49.07
45888;BME280;31595;51.418;7.572;2023-04-12T00:50:43;99366.41;;;11.41;49.15
45888;BME280;31595;51.418;7.572;2023-04-12T00:53:13;99354.69;;;11.48;49.33
45888;BME280;31595;51.418;7.572;2023-04-12T00:55:43;99346.31;;;11.35;49.85
45888;BME280;31595;51.418;7.572;2023-04-12T00:58:12;99356.97;;;11.33;49.25
45888;BME280;31595;51.418;7.572;2023-04-12T01:00:40;99355.59;;;11.27;49.49
45888;BME280;31595;51.418;7.572;2023-04-12T01:03:09;99353.25;;;11.29;49.44
45888;BME280;31595;51.418;7.572;2023-04-12T01:06:01;99353.72;;;11.31;50.08
45888;BME280;31595;51.418;7.572;2023-04-12T01:08:38;99345.47;;;11.23;50.79
45888;BME280;31595;51.418;7.572;2023-04-12T01:11:13;99357.53;;;11.14;51.07
45888;BME280;31595;51.418;7.572;2023-04-12T01:13:50;99348.97;;;11.20;51.29
45888;BME280;31595;51.418;7.572;2023-04-12T01:16:25;99345.81;;;11.09;51.43
45888;BME280;31595;51.418;7.572;2023-04-12T01:18:59;99344.88;;;11.05;52.18
45888;BME280;31595;51.418;7.572;2023-04-12T01:21:41;99331.16;;;11.00;52.95
45888;BME280;31595;51.418;7.572;2023-04-12T01:24:22;99327.56;;;10.99;52.86
45888;BME280;31595;51.418;7.572;2023-04-12T01:26:54;99307.81;;;10.92;53.10
45888;BME280;31595;51.418;7.572;2023-04-12T01:29:28;99298.16;;;10.89;53.72
45888;BME280;31595;51.418;7.572;2023-04-12T01:32:01;99302.47;;;10.87;53.45
45888;BME280;31595;51.418;7.572;2023-04-12T01:34:31;99301.38;;;10.79;53.79
45888;BME280;31595;51.418;7.572;2023-04-12T01:37:04;99304.84;;;10.64;54.60
45888;BME280;31595;51.418;7.572;2023-04-12T01:39:32;99289.22;;;10.71;54.69
45888;BME280;31595;51.418;7.572;2023-04-12T01:42:04;99279.56;;;10.69;54.98
45888;BME280;31595;51.418;7.572;2023-04-12T01:44:33;99277.50;;;10.78;55.44
45888;BME280;31595;51.418;7.572;2023-04-12T01:47:01;99281.91;;;10.67;56.12
45888;BME280;31595;51.418;7.572;2023-04-12T01:49:37;99269.81;;;10.63;55.60
45888;BME280;31595;51.418;7.572;2023-04-12T01:52:13;99277.94;;;10.68;55.81
45888;BME280;31595;51.418;7.572;2023-04-12T01:54:48;99261.13;;;10.76;56.89
45888;BME280;31595;51.418;7.572;2023-04-12T01:57:18;99253.56;;;10.65;57.10
45888;BME280;31595;51.418;7.572;2023-04-12T01:59:49;99259.50;;;10.75;56.25
45888;BME280;31595;51.418;7.572;2023-04-12T02:02:18;99248.53;;;10.46;57.41
45888;BME280;31595;51.418;7.572;2023-04-12T02:04:46;99236.81;;;10.40;58.67
45888;BME280;31595;51.418;7.572;2023-04-12T02:07:14;99252.00;;;10.43;58.05
45888;BME280;31595;51.418;7.572;2023-04-12T02:09:43;99224.25;;;10.34;58.92
45888;BME280;31595;51.418;7.572;2023-04-12T02:12:11;99219.63;;;10.38;59.16
45888;BME280;31595;51.418;7.572;2023-04-12T02:14:39;99217.19;;;10.36;59.00
45888;BME280;31595;51.418;7.572;2023-04-12T02:17:08;99204.31;;;10.11;59.36
45888;BME280;31595;51.418;7.572;2023-04-12T02:19:38;99203.53;;;10.10;60.48
45888;BME280;31595;51.418;7.572;2023-04-12T02:22:05;99197.97;;;10.10;60.76
45888;BME280;31595;51.418;7.572;2023-04-12T02:24:33;99193.47;;;9.97;61.26
45888;BME280;31595;51.418;7.572;2023-04-12T02:27:01;99185.06;;;10.06;61.41
45888;BME280;31595;51.418;7.572;2023-04-12T02:29:28;99175.69;;;10.10;60.38
45888;BME280;31595;51.418;7.572;2023-04-12T02:31:56;99169.06;;;10.03;61.56
45888;BME280;31595;51.418;7.572;2023-04-12T02:34:25;99154.81;;;10.04;61.99
45888;BME280;31595;51.418;7.572;2023-04-12T02:36:56;99157.25;;;10.06;61.89
45888;BME280;31595;51.418;7.572;2023-04-12T02:39:26;99154.81;;;10.04;61.65
45888;BME280;31595;51.418;7.572;2023-04-12T02:41:57;99140.00;;;10.12;61.47
45888;BME280;31595;51.418;7.572;2023-04-12T02:44:28;99138.56;;;9.94;61.67
45888;BME280;31595;51.418;7.572;2023-04-12T02:46:55;99134.34;;;9.88;61.85
45888;BME280;31595;51.418;7.572;2023-04-12T02:49:24;99147.50;;;10.00;62.75
45888;BME280;31595;51.418;7.572;2023-04-12T02:51:55;99144.00;;;10.03;62.75
45888;BME280;31595;51.418;7.572;2023-04-12T02:54:24;99129.78;;;10.04;62.24
45888;BME280;31595;51.418;7.572;2023-04-12T02:56:52;99120.34;;;9.96;62.88
45888;BME280;31595;51.418;7.572;2023-04-12T02:59:20;99123.84;;;9.93;61.76
45888;BME280;31595;51.418;7.572;2023-04-12T03:01:48;99107.00;;;9.90;61.89
45888;BME280;31595;51.418;7.572;2023-04-12T03:04:15;99108.19;;;10.01;62.91
45888;BME280;31595;51.418;7.572;2023-04-12T03:06:44;99089.63;;;9.93;62.72
45888;BME280;31595;51.418;7.572;2023-04-12T03:09:18;99090.19;;;9.86;63.56
45888;BME280;31595;51.418;7.572;2023-04-12T03:11:47;99083.91;;;9.77;63.69
45888;BME280;31595;51.418;7.572;2023-04-12T03:14:14;99060.78;;;9.85;63.35
45888;BME280;31595;51.418;7.572;2023-04-12T03:16:42;99067.38;;;9.81;63.30
45888;BME280;31595;51.418;7.572;2023-04-12T03:19:12;99056.47;;;9.88;63.54
45888;BME280;31595;51.418;7.572;2023-04-12T03:21:40;99053.47;;;9.81;62.47
45888;BME280;31595;51.418;7.572;2023-04-12T03:24:09;99052.06;;;9.74;62.98
45888;BME280;31595;51.418;7.572;2023-04-12T03:26:36;99052.97;;;9.66;63.21
45888;BME280;31595;51.418;7.572;2023-04-12T03:29:07;99040.81;;;9.71;64.03
45888;BME280;31595;51.418;7.572;2023-04-12T03:31:34;99032.00;;;9.69;62.42
45888;BME280;31595;51.418;7.572;2023-04-12T03:34:02;99027.38;;;9.73;63.11
45888;BME280;31595;51.418;7.572;2023-04-12T03:36:29;99013.91;;;9.63;63.10
45888;BME280;31595;51.418;7.572;2023-04-12T03:38:56;98995.63;;;9.62;64.07
45888;BME280;31595;51.418;7.572;2023-04-12T03:41:25;98989.69;;;9.63;62.97
45888;BME280;31595;51.418;7.572;2023-04-12T03:43:52;98984.38;;;9.58;63.86
45888;BME280;31595;51.418;7.572;2023-04-12T03:46:28;98997.13;;;9.71;63.82
45888;BME280;31595;51.418;7.572;2023-04-12T03:48:56;98970.38;;;9.67;63.17
45888;BME280;31595;51.418;7.572;2023-04-12T03:51:23;98968.41;;;9.80;62.96
45888;BME280;31595;51.418;7.572;2023-04-12T03:53:51;98962.16;;;9.83;63.20
45888;BME280;31595;51.418;7.572;2023-04-12T03:56:19;98973.50;;;9.78;62.71
45888;BME280;31595;51.418;7.572;2023-04-12T03:58:51;98943.03;;;9.81;62.08
45888;BME280;31595;51.418;7.572;2023-04-12T04:01:18;98943.63;;;9.74;61.80
45888;BME280;31595;51.418;7.572;2023-04-12T04:03:46;98935.16;;;9.71;63.15
45888;BME280;31595;51.418;7.572;2023-04-12T04:06:13;98936.69;;;9.81;62.28
45888;BME280;31595;51.418;7.572;2023-04-12T04:08:44;98939.44;;;9.81;62.48
45888;BME280;31595;51.418;7.572;2023-04-12T04:11:11;98943.50;;;9.83;63.06
45888;BME280;31595;51.418;7.572;2023-04-12T04:13:39;98923.44;;;9.78;62.40
45888;BME280;31595;51.418;7.572;2023-04-12T04:16:08;98910.22;;;9.87;63.09
45888;BME280;31595;51.418;7.572;2023-04-12T04:18:36;98900.88;;;9.91;62.86
45888;BME280;31595;51.418;7.572;2023-04-12T04:21:08;98898.88;;;9.80;61.85
45888;BME280;31595;51.418;7.572;2023-04-12T04:23:36;98895.84;;;9.85;62.76
45888;BME280;31595;51.418;7.572;2023-04-12T04:26:04;98892.88;;;9.78;62.22
45888;BME280;31595;51.418;7.572;2023-04-12T04:28:35;98898.66;;;9.72;63.81
45888;BME280;31595;51.418;7.572;2023-04-12T04:31:04;98901.19;;;9.78;63.88
45888;BME280;31595;51.418;7.572;2023-04-12T04:33:33;98885.44;;;9.69;63.98
45888;BME280;31595;51.418;7.572;2023-04-12T04:36:01;98883.25;;;9.63;64.20
45888;BME280;31595;51.418;7.572;2023-04-12T04:38:29;98871.31;;;9.62;63.99
45888;BME280;31595;51.418;7.572;2023-04-12T04:40:57;98850.00;;;9.66;64.19
45888;BME280;31595;51.418;7.572;2023-04-12T04:43:24;98851.88;;;9.74;63.71
45888;BME280;31595;51.418;7.572;2023-04-12T04:45:55;98837.03;;;9.70;63.16
45888;BME280;31595;51.418;7.572;2023-04-12T04:48:22;98844.44;;;9.66;63.39
45888;BME280;31595;51.418;7.572;2023-04-12T04:50:51;98828.44;;;9.75;64.34
45888;BME280;31595;51.418;7.572;2023-04-12T04:53:21;98835.84;;;9.84;63.36
45888;BME280;31595;51.418;7.572;2023-04-12T04:55:48;98832.41;;;9.74;63.28
45888;BME280;31595;51.418;7.572;2023-04-12T04:58:15;98828.09;;;9.77;63.59
45888;BME280;31595;51.418;7.572;2023-04-12T05:00:42;98832.28;;;9.83;63.82
45888;BME280;31595;51.418;7.572;2023-04-12T05:03:10;98829.03;;;9.81;64.28
45888;BME280;31595;51.418;7.572;2023-04-12T05:05:38;98821.28;;;9.74;63.36
45888;BME280;31595;51.418;7.572;2023-04-12T05:08:06;98826.72;;;9.83;63.27
45888;BME280;31595;51.418;7.572;2023-04-12T05:10:33;98821.94;;;9.84;63.61
45888;BME280;31595;51.418;7.572;2023-04-12T05:13:01;98809.44;;;9.90;64.02
45888;BME280;31595;51.418;7.572;2023-04-12T05:15:29;98808.84;;;9.96;63.54
45888;BME280;31595;51.418;7.572;2023-04-12T05:17:56;98803.72;;;9.99;63.05
45888;BME280;31595;51.418;7.572;2023-04-12T05:20:23;98797.09;;;10.03;63.63
45888;BME280;31595;51.418;7.572;2023-04-12T05:22:51;98805.91;;;10.05;62.81
45888;BME280;31595;51.418;7.572;2023-04-12T05:25:19;98793.19;;;9.92;63.51
45888;BME280;31595;51.418;7.572;2023-04-12T05:27:46;98785.50;;;10.01;63.15
45888;BME280;31595;51.418;7.572;2023-04-12T05:30:14;98779.25;;;10.04;62.83
45888;BME280;31595;51.418;7.572;2023-04-12T05:32:41;98777.94;;;10.14;62.86
45888;BME280;31595;51.418;7.572;2023-04-12T05:35:08;98779.31;;;10.20;62.44
45888;BME280;31595;51.418;7.572;2023-04-12T05:37:36;98772.75;;;10.12;62.61
45888;BME280;31595;51.418;7.572;2023-04-12T05:40:04;98793.22;;;10.20;62.34
45888;BME280;31595;51.418;7.572;2023-04-12T05:42:33;98771.22;;;10.15;62.52
45888;BME280;31595;51.418;7.572;2023-04-12T05:45:01;98773.28;;;10.18;64.08
45888;BME280;31595;51.418;7.572;2023-04-12T05:47:29;98765.50;;;10.24;63.47
45888;BME280;31595;51.418;7.572;2023-04-12T05:49:56;98760.56;;;10.17;63.74
45888;BME280;31595;51.418;7.572;2023-04-12T05:52:24;98758.72;;;10.09;63.43
45888;BME280;31595;51.418;7.572;2023-04-12T05:54:51;98752.66;;;10.31;63.34
45888;BME280;31595;51.418;7.572;2023-04-12T05:57:18;98751.81;;;10.31;63.45
45888;BME280;31595;51.418;7.572;2023-04-12T05:59:47;98754.53;;;10.15;65.69
45888;BME280;31595;51.418;7.572;2023-04-12T06:02:14;98759.59;;;10.25;65.23
45888;BME280;31595;51.418;7.572;2023-04-12T06:04:41;98748.81;;;10.24;65.63
45888;BME280;31595;51.418;7.572;2023-04-12T06:07:09;98745.75;;;10.29;65.98
45888;BME280;31595;51.418;7.572;2023-04-12T06:09:36;98743.41;;;10.15;65.91
45888;BME280;31595;51.418;7.572;2023-04-12T06:12:03;98739.91;;;10.18;69.44
45888;BME280;31595;51.418;7.572;2023-04-12T06:14:31;98730.06;;;10.21;67.16
45888;BME280;31595;51.418;7.572;2023-04-12T06:16:59;98726.81;;;10.19;67.85
45888;BME280;31595;51.418;7.572;2023-04-12T06:19:27;98737.03;;;10.14;68.47
45888;BME280;31595;51.418;7.572;2023-04-12T06:21:54;98725.88;;;9.86;69.07
45888;BME280;31595;51.418;7.572;2023-04-12T06:24:21;98719.22;;;10.03;70.42
45888;BME280;31595;51.418;7.572;2023-04-12T06:26:49;98712.22;;;9.93;70.79
45888;BME280;31595;51.418;7.572;2023-04-12T06:29:16;98705.41;;;10.07;70.59
45888;BME280;31595;51.418;7.572;2023-04-12T06:31:43;98736.84;;;9.95;70.71
45888;BME280;31595;51.418;7.572;2023-04-12T06:34:12;98699.28;;;9.73;72.53
45888;BME280;31595;51.418;7.572;2023-04-12T06:36:39;98701.34;;;9.76;72.70
45888;BME280;31595;51.418;7.572;2023-04-12T06:39:08;98709.50;;;9.69;71.57
45888;BME280;31595;51.418;7.572;2023-04-12T06:41:36;98704.75;;;9.69;71.89
45888;BME280;31595;51.418;7.572;2023-04-12T06:44:04;98690.59;;;9.74;72.60
45888;BME280;31595;51.418;7.572;2023-04-12T06:46:31;98686.16;;;9.86;72.08
45888;BME280;31595;51.418;7.572;2023-04-12T06:48:58;98681.81;;;9.72;74.54
45888;BME280;31595;51.418;7.572;2023-04-12T06:51:27;98672.28;;;9.73;73.47
45888;BME280;31595;51.418;7.572;2023-04-12T06:53:55;98689.56;;;9.67;73.93
45888;BME280;31595;51.418;7.572;2023-04-12T06:56:22;98669.53;;;9.61;75.33
45888;BME280;31595;51.418;7.572;2023-04-12T06:58:49;98667.03;;;9.56;74.02
45888;BME280;31595;51.418;7.572;2023-04-12T07:01:17;98659.47;;;9.69;75.18
45888;BME280;31595;51.418;7.572;2023-04-12T07:03:44;98648.78;;;9.71;75.42
45888;BME280;31595;51.418;7.572;2023-04-12T07:06:11;98641.50;;;9.66;74.94
45888;BME280;31595;51.418;7.572;2023-04-12T07:08:40;98641.84;;;9.93;75.64
45888;BME280;31595;51.418;7.572;2023-04-12T07:11:07;98638.09;;;10.01;75.28
45888;BME280;31595;51.418;7.572;2023-04-12T07:13:34;98627.31;;;9.84;75.59
45888;BME280;31595;51.418;7.572;2023-04-12T07:16:02;98630.81;;;9.81;75.82
45888;BME280;31595;51.418;7.572;2023-04-12T07:18:29;98622.81;;;9.95;75.08
45888;BME280;31595;51.418;7.572;2023-04-12T07:20:57;98611.63;;;9.91;75.76
45888;BME280;31595;51.418;7.572;2023-04-12T07:23:24;98618.00;;;9.92;76.18
45888;BME280;31595;51.418;7.572;2023-04-12T07:25:57;98608.84;;;10.07;76.11
45888;BME280;31595;51.418;7.572;2023-04-12T07:28:25;98613.00;;;10.13;75.67
45888;BME280;31595;51.418;7.572;2023-04-12T07:30:52;98599.56;;;10.47;74.44
45888;BME280;31595;51.418;7.572;2023-04-12T07:33:20;98590.59;;;10.54;74.08
45888;BME280;31595;51.418;7.572;2023-04-12T07:35:47;98592.47;;;10.66;73.35
45888;BME280;31595;51.418;7.572;2023-04-12T07:38:15;98587.25;;;10.64;73.19
45888;BME280;31595;51.418;7.572;2023-04-12T07:40:42;98578.75;;;10.41;73.32
45888;BME280;31595;51.418;7.572;2023-04-12T07:43:10;98582.97;;;10.51;72.21
45888;BME280;31595;51.418;7.572;2023-04-12T07:45:38;98578.78;;;10.76;71.82
45888;BME280;31595;51.418;7.572;2023-04-12T07:48:05;98574.84;;;11.13;71.92
45888;BME280;31595;51.418;7.572;2023-04-12T07:50:33;98576.69;;;10.89;70.93
45888;BME280;31595;51.418;7.572;2023-04-12T07:53:18;98566.44;;;10.93;71.15
45888;BME280;31595;51.418;7.572;2023-04-12T07:55:46;98558.31;;;11.04;71.45
45888;BME280;31595;51.418;7.572;2023-04-12T07:58:15;98558.31;;;11.04;70.91
45888;BME280;31595;51.418;7.572;2023-04-12T08:00:43;98545.28;;;11.08;70.31
45888;BME280;31595;51.418;7.572;2023-04-12T08:03:11;98552.56;;;11.13;71.07
45888;BME280;31595;51.418;7.572;2023-04-12T08:05:39;98554.38;;;11.25;70.44
45888;BME280;31595;51.418;7.572;2023-04-12T08:08:07;98551.53;;;11.41;68.97
45888;BME280;31595;51.418;7.572;2023-04-12T08:10:35;98531.53;;;11.77;68.75
45888;BME280;31595;51.418;7.572;2023-04-12T08:13:03;98522.25;;;12.39;67.00
45888;BME280;31595;51.418;7.572;2023-04-12T08:15:32;98517.50;;;12.96;63.76
45888;BME280;31595;51.418;7.572;2023-04-12T08:17:59;98528.66;;;13.27;63.43
45888;BME280;31595;51.418;7.572;2023-04-12T08:20:28;98512.38;;;13.66;63.18
45888;BME280;31595;51.418;7.572;2023-04-12T08:22:56;98519.78;;;14.30;59.99
45888;BME280;31595;51.418;7.572;2023-04-12T08:25:23;98514.78;;;14.09;60.63
45888;BME280;31595;51.418;7.572;2023-04-12T08:27:51;98513.09;;;13.97;60.81
45888;BME280;31595;51.418;7.572;2023-04-12T08:30:18;98531.53;;;14.01;61.24
45888;BME280;31595;51.418;7.572;2023-04-12T08:32:52;98528.69;;;13.57;60.72
45888;BME280;31595;51.418;7.572;2023-04-12T08:35:20;98531.88;;;13.25;61.38
45888;BME280;31595;51.418;7.572;2023-04-12T08:37:48;98534.00;;;12.78;62.70
45888;BME280;31595;51.418;7.572;2023-04-12T08:40:15;98531.69;;;12.84;62.67
45888;BME280;31595;51.418;7.572;2023-04-12T08:42:42;98527.94;;;12.46;63.59
45888;BME280;31595;51.418;7.572;2023-04-12T08:45:11;98530.88;;;12.30;65.90
45888;BME280;31595;51.418;7.572;2023-04-12T08:47:39;98532.69;;;12.19;67.75
45888;BME280;31595;51.418;7.572;2023-04-12T08:50:10;98530.44;;;11.63;70.07
45888;BME280;31595;51.418;7.572;2023-04-12T08:52:39;98535.97;;;11.40;72.29
45888;BME280;31595;51.418;7.572;2023-04-12T08:55:07;98519.19;;;11.36;75.45
45888;BME280;31595;51.418;7.572;2023-04-12T08:57:36;98531.72;;;11.26;75.86
45888;BME280;31595;51.418;7.572;2023-04-12T09:00:08;98513.59;;;11.16;77.92
45888;BME280;31595;51.418;7.572;2023-04-12T09:02:36;98508.69;;;11.29;77.78
45888;BME280;31595;51.418;7.572;2023-04-12T09:05:04;98493.88;;;11.45;76.48
45888;BME280;31595;51.418;7.572;2023-04-12T09:07:33;98508.69;;;11.49;75.62
45888;BME280;31595;51.418;7.572;2023-04-12T09:10:00;98497.13;;;11.70;76.24
45888;BME280;31595;51.418;7.572;2023-04-12T09:12:28;98490.94;;;11.80;75.55
45888;BME280;31595;51.418;7.572;2023-04-12T09:15:07;98494.50;;;12.00;74.14
45888;BME280;31595;51.418;7.572;2023-04-12T09:17:35;98488.63;;;11.86;73.18
45888;BME280;31595;51.418;7.572;2023-04-12T09:20:21;98479.66;;;12.19;73.16
45888;BME280;31595;51.418;7.572;2023-04-12T09:22:51;98477.44;;;12.05;72.32
45888;BME280;31595;51.418;7.572;2023-04-12T09:25:35;98500.00;;;11.96;72.35
45888;BME280;31595;51.418;7.572;2023-04-12T09:28:04;98487.53;;;11.90;72.13
45888;BME280;31595;51.418;7.572;2023-04-12T09:30:43;98487.69;;;11.97;72.43
45888;BME280;31595;51.418;7.572;2023-04-12T09:33:17;98483.34;;;12.00;71.65
45888;BME280;31595;51.418;7.572;2023-04-12T09:35:44;98469.25;;;12.16;71.12
45888;BME280;31595;51.418;7.572;2023-04-12T09:38:13;98478.06;;;12.18;70.95
45888;BME280;31595;51.418;7.572;2023-04-12T09:40:41;98477.25;;;12.44;70.79
45888;BME280;31595;51.418;7.572;2023-04-12T09:43:08;98474.47;;;12.44;71.31
45888;BME280;31595;51.418;7.572;2023-04-12T09:45:36;98476.47;;;12.44;71.92
45888;BME280;31595;51.418;7.572;2023-04-12T09:48:05;98468.81;;;12.41;71.59
45888;BME280;31595;51.418;7.572;2023-04-12T09:50:33;98480.25;;;12.32;71.95
45888;BME280;31595;51.418;7.572;2023-04-12T09:53:02;98473.59;;;12.40;72.37
45888;BME280;31595;51.418;7.572;2023-04-12T09:55:31;98467.03;;;12.55;72.41
45888;BME280;31595;51.418;7.572;2023-04-12T09:58:02;98456.50;;;13.02;71.26
45888;BME280;31595;51.418;7.572;2023-04-12T10:00:31;98474.47;;;13.31;70.04
45888;BME280;31595;51.418;7.572;2023-04-12T10:02:59;98473.53;;;12.93;69.52
45888;BME280;31595;51.418;7.572;2023-04-12T10:05:27;98459.44;;;13.16;69.17
45888;BME280;31595;51.418;7.572;2023-04-12T10:07:55;98463.88;;;13.51;68.71
45888;BME280;31595;51.418;7.572;2023-04-12T10:10:23;98462.31;;;13.95;66.28
45888;BME280;31595;51.418;7.572;2023-04-12T10:12:52;98472.88;;;14.16;65.16
45888;BME280;31595;51.418;7.572;2023-04-12T10:15:19;98459.88;;;13.93;65.64
45888;BME280;31595;51.418;7.572;2023-04-12T10:17:51;98465.97;;;14.06;66.05
45888;BME280;31595;51.418;7.572;2023-04-12T10:20:19;98459.59;;;14.06;66.23
45888;BME280;31595;51.418;7.572;2023-04-12T10:22:48;98462.53;;;13.75;66.18
45888;BME280;31595;51.418;7.572;2023-04-12T10:25:17;98473.75;;;13.42;67.07
45888;BME280;31595;51.418;7.572;2023-04-12T10:27:45;98453.75;;;13.39;67.14
45888;BME280;31595;51.418;7.572;2023-04-12T10:30:21;98455.09;;;13.53;67.86
45888;BME280;31595;51.418;7.572;2023-04-12T10:33:10;98446.50;;;13.31;71.95
45888;BME280;31595;51.418;7.572;2023-04-12T10:35:52;98439.88;;;14.43;73.19
45888;BME280;31595;51.418;7.572;2023-04-12T10:38:21;98433.69;;;14.82;68.61
45888;BME280;31595;51.418;7.572;2023-04-12T10:41:14;98443.69;;;18.53;60.60
45888;BME280;31595;51.418;7.572;2023-04-12T10:43:42;98424.69;;;21.22;50.92
45888;BME280;31595;51.418;7.572;2023-04-12T10:46:47;98421.88;;;22.89;44.30
45888;BME280;31595;51.418;7.572;2023-04-12T10:49:16;98416.63;;;22.88;42.38
45888;BME280;31595;51.418;7.572;2023-04-12T10:52:11;98435.84;;;20.89;46.19
45888;BME280;31595;51.418;7.572;2023-04-12T10:54:41;98406.25;;;22.19;43.22
45888;BME280;31595;51.418;7.572;2023-04-12T10:57:40;98415.03;;;21.76;43.35
45888;BME280;31595;51.418;7.572;2023-04-12T11:00:09;98412.31;;;20.96;44.57
45888;BME280;31595;51.418;7.572;2023-04-12T11:03:05;98426.13;;;19.45;48.43
45888;BME280;31595;51.418;7.572;2023-04-12T11:05:59;98411.78;;;18.18;50.12
45888;BME280;31595;51.418;7.572;2023-04-12T11:08:28;98422.78;;;18.05;51.55
45888;BME280;31595;51.418;7.572;2023-04-12T11:10:59;98432.81;;;17.51;53.99
45888;BME280;31595;51.418;7.572;2023-04-12T11:13:28;98424.69;;;16.72;55.63
45888;BME280;31595;51.418;7.572;2023-04-12T11:15:56;98427.16;;;16.59;56.31
45888;BME280;31595;51.418;7.572;2023-04-12T11:18:28;98427.59;;;16.07;56.12
45888;BME280;31595;51.418;7.572;2023-04-12T11:20:56;98441.25;;;15.91;58.67
45888;BME280;31595;51.418;7.572;2023-04-12T11:23:24;98433.63;;;15.84;57.88
45888;BME280;31595;51.418;7.572;2023-04-12T11:25:51;98442.03;;;15.73;59.22
45888;BME280;31595;51.418;7.572;2023-04-12T11:28:19;98446.38;;;15.53;59.63
45888;BME280;31595;51.418;7.572;2023-04-12T11:30:50;98437.53;;;15.58;61.12
45888;BME280;31595;51.418;7.572;2023-04-12T11:33:33;98434.81;;;15.87;60.97
45888;BME280;31595;51.418;7.572;2023-04-12T11:36:03;98435.63;;;16.09;60.54
45888;BME280;31595;51.418;7.572;2023-04-12T11:38:32;98433.63;;;15.84;59.55
45888;BME280;31595;51.418;7.572;2023-04-12T11:41:00;98434.81;;;15.83;59.01
45888;BME280;31595;51.418;7.572;2023-04-12T11:43:28;98429.19;;;15.87;58.50
45888;BME280;31595;51.418;7.572;2023-04-12T11:45:56;98422.34;;;15.59;57.86
45888;BME280;31595;51.418;7.572;2023-04-12T11:48:25;98426.75;;;15.63;58.62
45888;BME280;31595;51.418;7.572;2023-04-12T11:50:53;98418.72;;;15.58;58.12
45888;BME280;31595;51.418;7.572;2023-04-12T11:53:25;98433.94;;;15.54;58.84
45888;BME280;31595;51.418;7.572;2023-04-12T11:55:53;98429.94;;;15.48;60.17
45888;BME280;31595;51.418;7.572;2023-04-12T11:58:22;98437.91;;;15.35;60.05
45888;BME280;31595;51.418;7.572;2023-04-12T12:00:49;98441.94;;;15.37;60.11
45888;BME280;31595;51.418;7.572;2023-04-12T12:03:17;98447.19;;;15.57;60.85
45888;BME280;31595;51.418;7.572;2023-04-12T12:05:45;98449.09;;;15.20;64.70
45888;BME280;31595;51.418;7.572;2023-04-12T12:08:15;98455.63;;;14.62;69.10
45888;BME280;31595;51.418;7.572;2023-04-12T12:10:42;98457.31;;;14.77;70.32
45888;BME280;31595;51.418;7.572;2023-04-12T12:13:11;98460.31;;;15.20;69.76
45888;BME280;31595;51.418;7.572;2023-04-12T12:15:42;98454.75;;;15.42;67.54
45888;BME280;31595;51.418;7.572;2023-04-12T12:18:10;98453.19;;;15.59;66.20
45888;BME280;31595;51.418;7.572;2023-04-12T12:20:41;98464.06;;;15.71;64.18
45888;BME280;31595;51.418;7.572;2023-04-12T12:23:08;98470.03;;;15.55;63.53
45888;BME280;31595;51.418;7.572;2023-04-12T12:25:37;98459.59;;;15.59;64.43
45888;BME280;31595;51.418;7.572;2023-04-12T12:28:04;98452.44;;;15.76;65.91
45888;BME280;31595;51.418;7.572;2023-04-12T12:30:38;98446.47;;;15.92;63.72
45888;BME280;31595;51.418;7.572;2023-04-12T12:33:06;98455.66;;;16.00;62.37
45888;BME280;31595;51.418;7.572;2023-04-12T12:35:34;98450.06;;;16.07;63.24
45888;BME280;31595;51.418;7.572;2023-04-12T12:38:05;98452.47;;;16.27;62.68
45888;BME280;31595;51.418;7.572;2023-04-12T12:40:33;98450.06;;;16.29;61.50
45888;BME280;31595;51.418;7.572;2023-04-12T12:43:02;98450.88;;;16.26;60.16
45888;BME280;31595;51.418;7.572;2023-04-12T12:45:31;98443.59;;;16.46;59.70
45888;BME280;31595;51.418;7.572;2023-04-12T12:48:00;98449.19;;;16.60;59.08
45888;BME280;31595;51.418;7.572;2023-04-12T12:50:31;98445.13;;;16.79;59.50
45888;BME280;31595;51.418;7.572;2023-04-12T12:53:03;98443.53;;;16.89;59.32
45888;BME280;31595;51.418;7.572;2023-04-12T12:55:31;98431.03;;;17.04;58.11
45888;BME280;31595;51.418;7.572;2023-04-12T12:57:59;98434.56;;;17.23;57.54
45888;BME280;31595;51.418;7.572;2023-04-12T13:00:30;98432.47;;;17.34;57.84
45888;BME280;31595;51.418;7.572;2023-04-12T13:02:57;98433.66;;;17.44;56.51
45888;BME280;31595;51.418;7.572;2023-04-12T13:05:25;98435.34;;;17.27;54.89
45888;BME280;31595;51.418;7.572;2023-04-12T13:07:52;98439.41;;;17.19;55.37
45888;BME280;31595;51.418;7.572;2023-04-12T13:10:19;98443.56;;;16.78;54.38
45888;BME280;31595;51.418;7.572;2023-04-12T13:12:46;98427.53;;;16.54;55.62
45888;BME280;31595;51.418;7.572;2023-04-12T13:15:14;98429.56;;;16.39;56.72